createdAt,value
2022-08-11T00:04:19.318Z,26.544
2022-08-11T00:20:15.098Z,26.295
2022-08-11T00:35:54.011Z,26.214
2022-08-11T00:50:59.513Z,25.031
2022-08-11T01:06:01.448Z,26.258
2022-08-11T01:21:04.862Z,30.853
2022-08-11T01:36:06.738Z,30.424
2022-08-11T01:51:08.641Z,32.132
2022-08-11T02:06:18.815Z,32.75
2022-08-11T02:21:21.907Z,32.766
2022-08-11T02:36:23.795Z,36.678
2022-08-11T02:51:25.698Z,33.244
2022-08-11T03:06:27.578Z,31.368
2022-08-11T03:22:01.299Z,30.508
2022-08-11T03:37:16.294Z,29.623
2022-08-11T03:52:19.310Z,29.244
2022-08-11T04:07:21.221Z,29.155
2022-08-11T04:22:23.171Z,28.908
2022-08-11T04:37:25.090Z,28.04
2022-08-11T04:52:37.952Z,29.44
2022-08-11T05:07:40.209Z,26.942
2022-08-11T05:22:42.105Z,28.424
2022-08-11T05:37:44.041Z,29.072
2022-08-11T05:52:46.979Z,32.909
2022-08-11T06:07:50.961Z,32.778
2022-08-11T06:22:53.226Z,33.193
2022-08-11T06:37:55.548Z,31.831
2022-08-11T06:53:01.159Z,35.119
2022-08-11T07:08:34.114Z,31.56
2022-08-11T07:23:37.391Z,30.826
2022-08-11T07:38:39.272Z,32.218
2022-08-11T07:53:57.791Z,33.474
2022-08-11T08:09:00.834Z,34.218
2022-08-11T08:24:02.914Z,32.729
2022-08-11T08:39:04.812Z,35.736
2022-08-11T08:54:06.681Z,35.874
2022-08-11T09:09:08.568Z,35.501
2022-08-11T09:24:17.063Z,37.195
2022-08-11T09:39:26.953Z,32.477
2022-08-11T09:54:28.865Z,37.255
2022-08-11T10:09:30.748Z,32.654
2022-08-11T10:24:32.628Z,32.758
2022-08-11T10:39:34.646Z,36.087
2022-08-11T10:54:36.574Z,32.824
2022-08-11T11:09:38.491Z,33.347
2022-08-11T11:24:40.385Z,33.715
2022-08-11T11:39:42.341Z,32.635
2022-08-11T11:54:44.275Z,32.961
2022-08-11T12:09:46.162Z,35.237
2022-08-11T12:24:48.104Z,32.706
2022-08-11T12:40:16.436Z,36.109
2022-08-11T12:55:39.595Z,33.425
2022-08-11T13:10:41.523Z,32.612
2022-08-11T13:25:43.446Z,34.394
2022-08-11T13:40:55.643Z,36.156
2022-08-11T13:55:58.020Z,33.646
2022-08-11T14:10:59.991Z,33.76
2022-08-11T14:26:02.589Z,33.371
2022-08-11T14:41:04.707Z,33.377
2022-08-11T14:56:06.628Z,32.915
2022-08-11T15:11:10.872Z,32.46
2022-08-11T15:26:12.744Z,32.813
2022-08-11T15:41:14.630Z,32.803
2022-08-11T15:56:16.598Z,32.344
2022-08-11T16:11:21.253Z,32.526
2022-08-11T16:27:11.606Z,32.445
2022-08-11T16:43:09.163Z,31.763
2022-08-11T16:58:12.436Z,31.012
2022-08-11T17:13:14.333Z,29.941
2022-08-11T17:28:16.239Z,29.631
2022-08-11T17:43:18.140Z,28.737
2022-08-11T17:58:20.071Z,28.74
2022-08-11T18:13:21.943Z,29.134
2022-08-11T18:28:23.806Z,28.287
2022-08-11T18:43:29.197Z,27.832
2022-08-11T18:58:31.114Z,28.353
2022-08-11T19:13:33.007Z,27.967
2022-08-11T19:28:34.908Z,27.728
2022-08-11T19:43:36.799Z,27.998
2022-08-11T19:58:38.714Z,27.576
2022-08-11T20:13:41.615Z,27.95
2022-08-11T20:28:44.498Z,27.733
2022-08-11T20:44:08.245Z,27.782
2022-08-11T20:59:17.417Z,27.783
2022-08-11T21:14:20.522Z,26.52
2022-08-11T21:29:22.419Z,26.958
2022-08-11T21:44:24.367Z,28.928
2022-08-11T21:59:26.266Z,28.98
2022-08-11T22:14:28.145Z,28.122
2022-08-11T22:29:38.233Z,35.74
2022-08-11T22:44:52.860Z,32.348
2022-08-11T22:59:55.081Z,30.255
2022-08-11T23:14:57.013Z,28.941
2022-08-11T23:29:58.969Z,28.826
2022-08-11T23:45:00.874Z,28.692
